createdAt,value
2018-07-30T00:00:33.660Z,23.39
2018-07-30T00:01:33.644Z,23.43
2018-07-30T00:02:33.635Z,23.40
2018-07-30T00:03:33.621Z,23.35
2018-07-30T00:04:33.611Z,23.39
2018-07-30T00:05:33.595Z,23.31
2018-07-30T00:06:33.591Z,23.20
2018-07-30T00:07:33.576Z,23.16
2018-07-30T00:08:33.570Z,23.15
2018-07-30T00:09:33.552Z,23.16
2018-07-30T00:10:33.533Z,23.12
2018-07-30T00:11:33.520Z,23.12
2018-07-30T00:12:33.513Z,23.23
2018-07-30T00:13:33.501Z,23.16
2018-07-30T00:14:33.487Z,23.17
2018-07-30T00:15:33.482Z,23.22
2018-07-30T00:16:33.468Z,23.28
2018-07-30T00:17:33.448Z,23.35
2018-07-30T00:18:33.435Z,23.22
2018-07-30T00:19:33.422Z,23.33
2018-07-30T00:20:33.410Z,23.19
2018-07-30T00:21:33.532Z,23.17
2018-07-30T00:22:33.384Z,23.16
2018-07-30T00:23:33.374Z,23.16
2018-07-30T00:24:33.357Z,23.16
2018-07-30T00:25:33.351Z,23.15
2018-07-30T00:26:33.335Z,23.12
2018-07-30T00:27:33.325Z,23.19
2018-07-30T00:28:33.308Z,23.19
2018-07-30T00:29:33.297Z,23.15
2018-07-30T00:30:33.297Z,23.17
2018-07-30T00:31:33.331Z,23.19
2018-07-30T00:32:33.259Z,23.19
2018-07-30T00:33:33.250Z,23.17
2018-07-30T00:34:33.243Z,23.22
2018-07-30T00:35:33.223Z,23.20
2018-07-30T00:36:33.212Z,23.19
2018-07-30T00:37:33.200Z,23.15
2018-07-30T00:38:33.187Z,23.16
2018-07-30T00:39:33.175Z,23.20
2018-07-30T00:40:33.162Z,23.22
2018-07-30T00:41:33.151Z,23.22
2018-07-30T00:42:33.145Z,23.19
2018-07-30T00:43:33.124Z,23.23
2018-07-30T00:44:33.115Z,23.25
2018-07-30T00:45:33.101Z,23.22
2018-07-30T00:46:33.086Z,23.20
2018-07-30T00:47:33.079Z,23.23
2018-07-30T00:48:33.062Z,23.17
2018-07-30T00:49:33.049Z,23.16
2018-07-30T00:50:33.036Z,23.12
2018-07-30T00:51:33.032Z,22.95
2018-07-30T00:52:33.031Z,22.86
2018-07-30T00:53:32.998Z,22.80
2018-07-30T00:54:32.986Z,22.76
2018-07-30T00:55:32.977Z,22.65
2018-07-30T00:56:32.963Z,22.67
2018-07-30T00:57:32.952Z,22.76
2018-07-30T00:58:32.937Z,22.68
2018-07-30T00:59:32.927Z,22.70
2018-07-30T01:00:32.912Z,22.79
2018-07-30T01:01:32.899Z,22.72
2018-07-30T01:02:32.887Z,22.79
2018-07-30T01:03:32.874Z,22.82
2018-07-30T01:04:32.864Z,22.68
2018-07-30T01:05:32.853Z,22.72
2018-07-30T01:06:32.836Z,22.62
2018-07-30T01:07:32.891Z,22.54
2018-07-30T01:08:32.812Z,22.61
2018-07-30T01:09:32.807Z,22.61
2018-07-30T01:10:32.786Z,22.49
2018-07-30T01:11:32.775Z,22.47
2018-07-30T01:12:32.762Z,22.47
2018-07-30T01:13:32.750Z,22.46
2018-07-30T01:14:32.736Z,22.43
2018-07-30T01:15:32.724Z,22.35
2018-07-30T01:16:32.711Z,22.27
2018-07-30T01:17:32.699Z,22.21
2018-07-30T01:18:32.686Z,22.20
2018-07-30T01:19:32.674Z,22.25
2018-07-30T01:20:32.660Z,22.22
2018-07-30T01:21:32.667Z,22.17
2018-07-30T01:22:32.638Z,22.24
2018-07-30T01:23:32.621Z,22.36
2018-07-30T01:24:32.611Z,22.36
2018-07-30T01:25:32.599Z,22.46
2018-07-30T01:26:32.591Z,22.60
2018-07-30T01:27:32.572Z,22.64
2018-07-30T01:28:32.561Z,22.67
2018-07-30T01:29:32.551Z,22.70
2018-07-30T01:30:32.534Z,22.79
2018-07-30T01:31:32.525Z,22.82
2018-07-30T01:32:32.512Z,22.85
2018-07-30T01:33:32.497Z,22.91
2018-07-30T01:34:32.487Z,22.79
2018-07-30T01:35:32.484Z,22.88
2018-07-30T01:36:32.461Z,22.82
2018-07-30T01:37:32.447Z,22.82
2018-07-30T01:38:32.438Z,23.00
2018-07-30T01:39:32.424Z,22.92
2018-07-30T01:40:32.409Z,22.92
2018-07-30T01:41:32.398Z,22.80
2018-07-30T01:42:32.384Z,22.88
2018-07-30T01:43:32.373Z,22.79
2018-07-30T01:44:32.358Z,22.83
2018-07-30T01:45:32.348Z,22.85
2018-07-30T01:46:32.332Z,22.86
2018-07-30T01:47:32.319Z,22.80
2018-07-30T01:48:32.308Z,22.80
2018-07-30T01:49:32.298Z,22.86
2018-07-30T01:50:32.291Z,22.88
2018-07-30T01:51:32.273Z,22.97
2018-07-30T01:52:32.257Z,23.02
2018-07-30T01:53:32.244Z,23.02
2018-07-30T01:54:32.231Z,22.86
2018-07-30T01:55:32.270Z,22.85
2018-07-30T01:56:32.210Z,22.77
2018-07-30T01:57:32.194Z,22.77
2018-07-30T01:58:32.181Z,22.77
2018-07-30T01:59:32.168Z,22.79
2018-07-30T02:00:32.158Z,22.80
2018-07-30T02:01:32.144Z,22.80
2018-07-30T02:02:32.131Z,22.83
2018-07-30T02:03:32.117Z,22.82
2018-07-30T02:04:32.105Z,22.65
2018-07-30T02:05:32.094Z,22.68
2018-07-30T02:06:32.080Z,22.62
2018-07-30T02:07:32.069Z,22.58
2018-07-30T02:08:32.057Z,22.64
2018-07-30T02:09:32.044Z,22.73
2018-07-30T02:10:32.027Z,22.65
2018-07-30T02:11:32.016Z,22.64
2018-07-30T02:12:32.003Z,22.73
2018-07-30T02:13:31.991Z,22.68
2018-07-30T02:14:31.987Z,22.67
2018-07-30T02:15:31.967Z,22.73
2018-07-30T02:16:31.956Z,22.68
2018-07-30T02:17:31.939Z,22.62
2018-07-30T02:18:31.926Z,22.49
2018-07-30T02:19:31.918Z,22.30
2018-07-30T02:20:31.901Z,22.37
2018-07-30T02:21:31.996Z,22.20
2018-07-30T02:22:31.875Z,22.12
2018-07-30T02:23:31.864Z,22.21
2018-07-30T02:24:31.851Z,22.20
2018-07-30T02:25:31.841Z,22.14
2018-07-30T02:26:31.826Z,22.06
2018-07-30T02:27:31.817Z,21.98
2018-07-30T02:28:31.801Z,21.94
2018-07-30T02:29:31.786Z,21.92
2018-07-30T02:30:31.783Z,21.94
2018-07-30T02:31:31.761Z,21.86
2018-07-30T02:32:31.749Z,21.99
2018-07-30T02:33:31.739Z,21.96
2018-07-30T02:34:31.723Z,21.99
2018-07-30T02:35:31.711Z,22.06
2018-07-30T02:36:31.697Z,22.02
2018-07-30T02:37:31.684Z,22.07
2018-07-30T02:38:31.676Z,22.18
2018-07-30T02:39:31.672Z,22.25
2018-07-30T02:40:31.645Z,22.27
2018-07-30T02:41:31.635Z,22.28
2018-07-30T02:42:31.624Z,22.27
2018-07-30T02:43:31.611Z,22.27
2018-07-30T02:44:31.595Z,22.33
2018-07-30T02:45:31.583Z,22.25
2018-07-30T02:46:31.570Z,22.39
2018-07-30T02:47:31.555Z,22.36
2018-07-30T02:48:31.545Z,22.25
2018-07-30T02:49:31.542Z,22.24
2018-07-30T02:50:31.519Z,22.21
2018-07-30T02:51:31.505Z,22.27
2018-07-30T02:52:31.495Z,22.28
2018-07-30T02:53:31.481Z,22.27
2018-07-30T02:54:31.464Z,22.39
2018-07-30T02:55:31.453Z,22.20
2018-07-30T02:56:31.444Z,22.20
2018-07-30T02:57:31.463Z,22.18
2018-07-30T02:58:31.415Z,22.15
2018-07-30T02:59:31.408Z,22.18
2018-07-30T03:00:31.389Z,22.14
2018-07-30T03:01:31.386Z,22.02
2018-07-30T03:02:31.364Z,22.00
2018-07-30T03:03:31.351Z,22.00
2018-07-30T03:04:31.339Z,22.03
2018-07-30T03:05:31.325Z,21.91
2018-07-30T03:06:31.313Z,21.68
2018-07-30T03:07:31.300Z,21.50
2018-07-30T03:08:31.288Z,21.29
2018-07-30T03:09:31.274Z,21.24
2018-07-30T03:10:31.262Z,21.19
2018-07-30T03:11:31.246Z,21.14
2018-07-30T03:12:31.235Z,21.19
2018-07-30T03:13:31.223Z,21.19
2018-07-30T03:14:31.210Z,21.29
2018-07-30T03:15:31.195Z,21.27
2018-07-30T03:16:31.182Z,21.29
2018-07-30T03:17:31.173Z,21.42
2018-07-30T03:18:31.162Z,21.34
2018-07-30T03:19:31.144Z,21.40
2018-07-30T03:20:31.131Z,21.44
2018-07-30T03:21:31.126Z,21.54
2018-07-30T03:22:31.109Z,21.49
2018-07-30T03:23:31.092Z,21.42
2018-07-30T03:24:31.079Z,21.52
2018-07-30T03:25:31.065Z,21.49
2018-07-30T03:26:31.053Z,21.46
2018-07-30T03:27:31.038Z,21.37
2018-07-30T03:28:31.025Z,21.25
2018-07-30T03:29:31.016Z,21.29
2018-07-30T03:30:31.008Z,21.17
2018-07-30T03:31:30.986Z,21.10
2018-07-30T03:32:30.976Z,21.12
2018-07-30T03:33:30.959Z,21.10
2018-07-30T03:34:30.944Z,21.06
2018-07-30T03:35:30.934Z,21.14
2018-07-30T03:36:30.919Z,21.10
2018-07-30T03:37:30.906Z,21.07
2018-07-30T03:38:30.893Z,21.12
2018-07-30T03:39:30.881Z,21.06
2018-07-30T03:40:30.871Z,21.07
2018-07-30T03:41:30.858Z,21.09
2018-07-30T03:42:30.845Z,21.03
2018-07-30T03:43:30.828Z,21.04
2018-07-30T03:44:30.816Z,21.07
2018-07-30T03:45:30.803Z,21.10
2018-07-30T03:46:30.793Z,21.10
2018-07-30T03:47:30.777Z,21.06
2018-07-30T03:48:30.763Z,21.03
2018-07-30T03:49:30.751Z,20.97
2018-07-30T03:50:30.736Z,20.97
2018-07-30T03:51:30.723Z,21.09
2018-07-30T03:52:30.710Z,21.06
2018-07-30T03:53:30.698Z,21.01
2018-07-30T03:54:30.683Z,21.01
2018-07-30T03:55:30.669Z,21.09
2018-07-30T03:56:30.657Z,21.13
2018-07-30T03:57:30.645Z,21.04
2018-07-30T03:58:30.633Z,20.99
2018-07-30T03:59:30.618Z,20.91
2018-07-30T04:00:30.604Z,20.80
2018-07-30T04:01:30.590Z,20.82
2018-07-30T04:02:30.579Z,20.80
2018-07-30T04:03:30.565Z,20.87
2018-07-30T04:04:30.553Z,20.85
2018-07-30T04:05:30.536Z,20.84
2018-07-30T04:06:30.625Z,20.85
2018-07-30T04:07:30.510Z,20.84
2018-07-30T04:08:30.499Z,20.89
2018-07-30T04:09:30.485Z,20.95
2018-07-30T04:10:30.470Z,20.99
2018-07-30T04:11:30.457Z,20.99
2018-07-30T04:12:30.447Z,20.98
2018-07-30T04:13:30.433Z,21.03
2018-07-30T04:14:30.417Z,21.10
2018-07-30T04:15:30.402Z,20.98
2018-07-30T04:16:30.393Z,20.95
2018-07-30T04:17:30.379Z,20.97
2018-07-30T04:18:30.366Z,21.01
2018-07-30T04:19:30.352Z,21.01
2018-07-30T04:20:30.346Z,20.94
2018-07-30T04:21:30.328Z,20.94
2018-07-30T04:22:30.310Z,21.01
2018-07-30T04:23:30.296Z,21.01
2018-07-30T04:24:30.283Z,21.12
2018-07-30T04:25:30.281Z,21.17
2018-07-30T04:26:30.258Z,21.28
2018-07-30T04:27:30.245Z,21.27
2018-07-30T04:28:30.232Z,21.40
2018-07-30T04:29:30.220Z,21.38
2018-07-30T04:30:30.207Z,21.46
2018-07-30T04:31:30.194Z,21.54
2018-07-30T04:32:30.180Z,21.58
2018-07-30T04:33:30.167Z,21.58
2018-07-30T04:34:30.152Z,21.71
2018-07-30T04:35:30.140Z,21.64
2018-07-30T04:36:30.129Z,21.64
2018-07-30T04:37:30.113Z,21.58
2018-07-30T04:38:30.099Z,21.58
2018-07-30T04:39:30.086Z,21.65
2018-07-30T04:40:30.073Z,21.69
2018-07-30T04:41:30.062Z,21.74
2018-07-30T04:42:30.047Z,21.75
2018-07-30T04:43:30.036Z,21.88
2018-07-30T04:44:30.020Z,21.84
2018-07-30T04:45:30.012Z,21.91
2018-07-30T04:46:29.993Z,21.90
2018-07-30T04:47:29.979Z,21.94
2018-07-30T04:48:29.970Z,22.02
2018-07-30T04:49:29.954Z,22.05
2018-07-30T04:50:29.939Z,21.90
2018-07-30T04:51:29.933Z,21.98
2018-07-30T04:52:29.916Z,21.88
2018-07-30T04:53:29.901Z,21.98
2018-07-30T04:54:29.887Z,21.84
2018-07-30T04:55:29.878Z,21.88
2018-07-30T04:56:29.861Z,21.86
2018-07-30T04:57:29.849Z,21.92
2018-07-30T04:58:29.839Z,21.98
2018-07-30T04:59:29.823Z,21.96
2018-07-30T05:00:29.810Z,21.86
2018-07-30T05:01:29.796Z,21.94
2018-07-30T05:02:29.791Z,21.92
2018-07-30T05:03:29.771Z,21.83
2018-07-30T05:04:29.756Z,21.69
2018-07-30T05:05:29.745Z,21.58
2018-07-30T05:06:29.729Z,21.52
2018-07-30T05:07:29.717Z,21.42
2018-07-30T05:08:29.702Z,21.42
2018-07-30T05:09:29.690Z,21.50
2018-07-30T05:10:29.676Z,21.54
2018-07-30T05:11:29.663Z,21.53
2018-07-30T05:12:29.650Z,21.52
2018-07-30T05:13:29.639Z,21.54
2018-07-30T05:14:29.623Z,21.62
2018-07-30T05:15:29.610Z,21.59
2018-07-30T05:16:29.607Z,21.53
2018-07-30T05:17:29.586Z,21.68
2018-07-30T05:18:29.571Z,21.67
2018-07-30T05:19:29.779Z,21.68
2018-07-30T05:20:29.547Z,21.69
2018-07-30T05:21:29.531Z,21.82
2018-07-30T05:22:29.525Z,21.74
2018-07-30T05:23:29.509Z,21.79
2018-07-30T05:24:29.493Z,21.79
2018-07-30T05:25:29.529Z,21.75
2018-07-30T05:26:29.466Z,21.72
2018-07-30T05:27:29.455Z,21.80
2018-07-30T05:28:29.442Z,21.82
2018-07-30T05:29:29.430Z,21.91
2018-07-30T05:30:29.413Z,21.91
2018-07-30T05:31:29.405Z,21.94
2018-07-30T05:32:29.388Z,22.03
2018-07-30T05:33:29.378Z,22.02
2018-07-30T05:34:29.367Z,22.02
2018-07-30T05:35:29.346Z,22.06
2018-07-30T05:36:29.332Z,22.07
2018-07-30T05:37:29.322Z,22.09
2018-07-30T05:38:29.308Z,22.14
2018-07-30T05:39:29.295Z,22.18
2018-07-30T05:40:29.283Z,22.18
2018-07-30T05:41:29.269Z,22.15
2018-07-30T05:42:29.255Z,22.24
2018-07-30T05:43:29.242Z,22.28
2018-07-30T05:44:29.229Z,22.35
2018-07-30T05:45:29.219Z,22.39
2018-07-30T05:46:29.206Z,22.43
2018-07-30T05:47:29.189Z,22.40
2018-07-30T05:48:29.178Z,22.52
2018-07-30T05:49:29.164Z,22.57
2018-07-30T05:50:29.154Z,22.62
2018-07-30T05:51:29.139Z,22.61
2018-07-30T05:52:29.124Z,22.73
2018-07-30T05:53:29.111Z,22.72
2018-07-30T05:54:29.099Z,22.67
2018-07-30T05:55:29.086Z,22.80
2018-07-30T05:56:29.075Z,22.80
2018-07-30T05:57:29.063Z,22.83
2018-07-30T05:58:29.056Z,22.88
2018-07-30T05:59:29.053Z,23.01
2018-07-30T06:00:29.023Z,22.97
2018-07-30T06:01:29.009Z,22.98
2018-07-30T06:02:28.996Z,23.19
2018-07-30T06:03:28.986Z,23.19
2018-07-30T06:04:28.978Z,23.20
2018-07-30T06:05:28.961Z,23.19
2018-07-30T06:06:28.947Z,23.35
2018-07-30T06:07:28.932Z,23.35
2018-07-30T06:08:28.919Z,23.42
2018-07-30T06:09:28.941Z,23.53
2018-07-30T06:10:28.892Z,23.63
2018-07-30T06:11:28.887Z,23.70
2018-07-30T06:12:28.873Z,23.75
2018-07-30T06:13:28.858Z,23.76
2018-07-30T06:14:28.843Z,23.80
2018-07-30T06:15:28.830Z,23.88
2018-07-30T06:16:28.819Z,23.87
2018-07-30T06:17:28.807Z,24.02
2018-07-30T06:18:28.793Z,23.94
2018-07-30T06:19:28.786Z,24.02
2018-07-30T06:20:28.766Z,24.10
2018-07-30T06:21:28.756Z,24.21
2018-07-30T06:22:28.745Z,24.18
2018-07-30T06:23:28.733Z,24.28
2018-07-30T06:24:28.721Z,24.25
2018-07-30T06:25:28.711Z,24.22
2018-07-30T06:26:28.794Z,24.28
2018-07-30T06:27:28.709Z,24.32
2018-07-30T06:28:28.668Z,24.34
2018-07-30T06:29:28.656Z,24.37
2018-07-30T06:30:28.645Z,24.45
2018-07-30T06:31:28.632Z,24.47
2018-07-30T06:32:28.616Z,24.47
2018-07-30T06:33:28.605Z,24.52
2018-07-30T06:34:28.588Z,24.49
2018-07-30T06:35:28.577Z,24.57
2018-07-30T06:36:28.575Z,24.50
2018-07-30T06:37:28.553Z,24.62
2018-07-30T06:38:28.641Z,24.69
2018-07-30T06:39:28.528Z,24.76
2018-07-30T06:40:28.514Z,24.73
2018-07-30T06:41:28.507Z,24.84
2018-07-30T06:42:28.492Z,24.83
2018-07-30T06:43:28.478Z,24.93
2018-07-30T06:44:28.465Z,24.90
2018-07-30T06:45:28.454Z,24.95
2018-07-30T06:46:28.440Z,25.03
2018-07-30T06:47:28.428Z,25.05
2018-07-30T06:48:28.417Z,25.09
2018-07-30T06:49:28.406Z,25.14
2018-07-30T06:50:28.393Z,25.09
2018-07-30T06:51:28.378Z,25.18
2018-07-30T06:52:28.369Z,25.13
2018-07-30T06:53:28.356Z,25.24
2018-07-30T06:54:28.346Z,25.24
2018-07-30T06:55:28.332Z,25.27
2018-07-30T06:56:28.319Z,25.21
2018-07-30T06:57:28.307Z,25.17
2018-07-30T06:58:28.295Z,25.35
2018-07-30T06:59:28.282Z,25.32
2018-07-30T07:00:28.278Z,25.38
2018-07-30T07:01:28.261Z,25.42
2018-07-30T07:02:28.246Z,25.35
2018-07-30T07:03:28.235Z,25.45
2018-07-30T07:04:28.226Z,25.54
2018-07-30T07:05:28.209Z,25.58
2018-07-30T07:06:28.200Z,25.57
2018-07-30T07:07:28.185Z,25.58
2018-07-30T07:08:28.176Z,25.61
2018-07-30T07:09:28.161Z,25.55
2018-07-30T07:10:28.147Z,25.58
2018-07-30T07:11:28.136Z,25.72
2018-07-30T07:12:28.123Z,25.58
2018-07-30T07:13:28.114Z,25.64
2018-07-30T07:14:28.108Z,25.65
2018-07-30T07:15:28.087Z,25.72
2018-07-30T07:16:28.116Z,25.73
2018-07-30T07:17:28.066Z,25.76
2018-07-30T07:18:28.051Z,25.83
2018-07-30T07:19:28.039Z,25.77
2018-07-30T07:20:28.027Z,25.87
2018-07-30T07:21:28.177Z,25.91
2018-07-30T07:22:28.004Z,25.94
2018-07-30T07:23:27.990Z,25.91
2018-07-30T07:24:27.980Z,25.98
2018-07-30T07:25:27.975Z,26.05
2018-07-30T07:26:27.958Z,26.12
2018-07-30T07:27:27.948Z,26.15
2018-07-30T07:28:27.931Z,26.17
2018-07-30T07:29:27.920Z,26.23
2018-07-30T07:30:27.908Z,26.30
2018-07-30T07:31:27.899Z,26.26
2018-07-30T07:32:27.884Z,26.32
2018-07-30T07:33:27.871Z,26.25
2018-07-30T07:34:27.860Z,26.36
2018-07-30T07:35:27.851Z,26.32
2018-07-30T07:36:27.840Z,26.43
2018-07-30T07:37:27.825Z,26.44
2018-07-30T07:38:27.820Z,26.51
2018-07-30T07:39:27.807Z,26.58
2018-07-30T07:40:27.791Z,26.62
2018-07-30T07:41:27.782Z,26.72
2018-07-30T07:42:27.767Z,26.76
2018-07-30T07:43:27.753Z,26.76
2018-07-30T07:44:27.742Z,26.82
2018-07-30T07:45:27.753Z,26.82
2018-07-30T07:46:27.718Z,26.80
2018-07-30T07:47:27.715Z,26.92
2018-07-30T07:48:27.696Z,26.99
2018-07-30T07:49:27.684Z,27.06
2018-07-30T07:50:27.713Z,27.03
2018-07-30T07:51:27.667Z,27.02
2018-07-30T07:52:27.651Z,27.04
2018-07-30T07:53:27.639Z,27.10
2018-07-30T07:54:27.629Z,27.24
2018-07-30T07:55:27.629Z,27.22
2018-07-30T07:56:27.606Z,27.29
2018-07-30T07:57:27.596Z,27.34
2018-07-30T07:58:27.583Z,27.40
2018-07-30T07:59:27.569Z,27.54
2018-07-30T08:00:27.578Z,27.55
2018-07-30T08:01:27.548Z,27.69
2018-07-30T08:02:27.549Z,27.72
2018-07-30T08:03:27.532Z,27.67
2018-07-30T08:04:27.523Z,27.63
2018-07-30T08:05:27.507Z,27.50
2018-07-30T08:06:27.503Z,27.55
2018-07-30T08:07:27.480Z,27.60
2018-07-30T08:08:27.468Z,27.78
2018-07-30T08:09:27.463Z,27.88
2018-07-30T08:10:27.448Z,27.90
2018-07-30T08:11:27.434Z,28.12
2018-07-30T08:12:27.425Z,28.11
2018-07-30T08:13:27.415Z,28.14
2018-07-30T08:14:27.403Z,28.11
2018-07-30T08:15:27.393Z,28.04
2018-07-30T08:16:27.426Z,27.99
2018-07-30T08:17:27.376Z,27.94
2018-07-30T08:18:27.363Z,27.96
2018-07-30T08:19:27.349Z,27.93
2018-07-30T08:20:27.338Z,27.94
2018-07-30T08:21:27.331Z,28.02
2018-07-30T08:22:27.318Z,28.12
2018-07-30T08:23:27.311Z,28.17
2018-07-30T08:24:27.309Z,28.31
2018-07-30T08:25:27.284Z,28.37
2018-07-30T08:26:27.277Z,28.29
2018-07-30T08:27:27.266Z,28.41
2018-07-30T08:28:27.255Z,28.51
2018-07-30T08:29:27.252Z,28.48
2018-07-30T08:30:27.233Z,28.62
2018-07-30T08:31:27.231Z,28.61
2018-07-30T08:32:27.218Z,28.56
2018-07-30T08:33:27.201Z,28.44
2018-07-30T08:34:27.189Z,28.49
2018-07-30T08:35:27.178Z,28.59
2018-07-30T08:36:27.168Z,28.51
2018-07-30T08:37:27.159Z,28.43
2018-07-30T08:38:27.151Z,28.40
2018-07-30T08:39:27.138Z,28.30
2018-07-30T08:40:27.136Z,28.27
2018-07-30T08:41:27.115Z,28.31
2018-07-30T08:42:27.119Z,28.40
2018-07-30T08:43:27.094Z,28.43
2018-07-30T08:44:27.089Z,28.30
2018-07-30T08:45:27.072Z,28.29
2018-07-30T08:46:27.063Z,28.19
2018-07-30T08:47:27.053Z,28.07
2018-07-30T08:48:27.046Z,28.12
2018-07-30T08:49:27.034Z,28.07
2018-07-30T08:50:27.021Z,28.07
2018-07-30T08:51:27.016Z,28.11
2018-07-30T08:52:27.001Z,28.21
2018-07-30T08:53:26.993Z,28.33
2018-07-30T08:54:26.991Z,28.41
2018-07-30T08:55:26.969Z,28.59
2018-07-30T08:56:27.043Z,28.70
2018-07-30T08:57:26.948Z,28.78
2018-07-30T08:58:26.937Z,28.77
2018-07-30T08:59:26.947Z,28.90
2018-07-30T09:00:26.918Z,29.02
2018-07-30T09:01:26.913Z,28.95
2018-07-30T09:02:26.900Z,28.78
2018-07-30T09:03:26.886Z,28.78
2018-07-30T09:04:26.878Z,28.83
2018-07-30T09:05:26.865Z,28.83
2018-07-30T09:06:26.855Z,28.95
2018-07-30T09:07:26.846Z,28.81
2018-07-30T09:08:26.852Z,28.96
2018-07-30T09:09:26.826Z,29.04
2018-07-30T09:10:26.815Z,29.15
2018-07-30T09:11:26.820Z,29.28
2018-07-30T09:12:26.868Z,29.45
2018-07-30T09:13:26.789Z,29.34
2018-07-30T09:14:26.775Z,29.36
2018-07-30T09:15:26.767Z,29.36
2018-07-30T09:16:26.760Z,29.42
2018-07-30T09:17:26.753Z,29.51
2018-07-30T09:18:26.748Z,29.60
2018-07-30T09:19:26.728Z,29.57
2018-07-30T09:20:26.723Z,29.57
2018-07-30T09:21:26.713Z,29.52
2018-07-30T09:22:26.696Z,29.57
2018-07-30T09:23:26.686Z,29.57
2018-07-30T09:24:26.677Z,29.28
2018-07-30T09:25:26.668Z,29.27
2018-07-30T09:26:26.659Z,29.37
2018-07-30T09:27:26.656Z,29.34
2018-07-30T09:28:26.638Z,29.49
2018-07-30T09:29:26.636Z,29.45
2018-07-30T09:30:26.619Z,29.46
2018-07-30T09:31:26.612Z,29.53
2018-07-30T09:32:26.603Z,29.58
2018-07-30T09:33:26.591Z,29.63
2018-07-30T09:34:26.584Z,29.55
2018-07-30T09:35:26.575Z,29.65
2018-07-30T09:36:26.573Z,29.67
2018-07-30T09:37:26.561Z,29.74
2018-07-30T09:38:26.547Z,29.70
2018-07-30T09:39:26.552Z,29.83
2018-07-30T09:40:26.535Z,29.83
2018-07-30T09:41:26.516Z,30.08
2018-07-30T09:42:26.505Z,30.17
2018-07-30T09:43:26.497Z,30.31
2018-07-30T09:44:26.522Z,30.45
2018-07-30T09:45:26.478Z,30.42
2018-07-30T09:46:26.469Z,30.29
2018-07-30T09:47:26.459Z,30.26
2018-07-30T09:48:26.448Z,30.34
2018-07-30T09:49:26.440Z,30.39
2018-07-30T09:50:26.462Z,30.38
2018-07-30T09:51:26.422Z,30.39
2018-07-30T09:52:26.430Z,30.34
2018-07-30T09:53:26.406Z,30.24
2018-07-30T09:54:26.395Z,30.24
2018-07-30T09:55:26.388Z,30.15
2018-07-30T09:56:26.381Z,30.11
2018-07-30T09:57:26.369Z,30.04
2018-07-30T09:58:26.357Z,30.23
2018-07-30T09:59:26.357Z,30.38
2018-07-30T10:00:26.339Z,30.51
2018-07-30T10:01:26.331Z,30.55
2018-07-30T10:02:26.336Z,30.62
2018-07-30T10:03:26.312Z,30.73
2018-07-30T10:04:26.315Z,30.82
2018-07-30T10:05:26.296Z,30.91
2018-07-30T10:06:26.287Z,30.77
2018-07-30T10:07:26.336Z,30.69
2018-07-30T10:08:26.268Z,30.69
2018-07-30T10:09:26.274Z,30.70
2018-07-30T10:10:26.262Z,30.67
2018-07-30T10:11:26.239Z,30.73
2018-07-30T10:12:26.229Z,30.82
2018-07-30T10:13:26.223Z,30.89
2018-07-30T10:14:26.213Z,30.79
2018-07-30T10:15:26.210Z,30.89
2018-07-30T10:16:26.192Z,30.89
2018-07-30T10:17:26.188Z,30.83
2018-07-30T10:18:26.215Z,30.80
2018-07-30T10:19:26.167Z,30.76
2018-07-30T10:20:26.166Z,30.65
2018-07-30T10:21:26.147Z,30.65
2018-07-30T10:22:26.138Z,30.57
2018-07-30T10:23:26.129Z,30.43
2018-07-30T10:24:26.139Z,30.20
2018-07-30T10:25:26.119Z,30.31
2018-07-30T10:26:26.112Z,30.51
2018-07-30T10:27:26.092Z,30.72
2018-07-30T10:28:26.084Z,30.62
2018-07-30T10:29:26.083Z,30.69
2018-07-30T10:30:26.066Z,30.98
2018-07-30T10:31:26.064Z,31.04
2018-07-30T10:32:26.047Z,31.13
2018-07-30T10:33:26.041Z,31.17
2018-07-30T10:34:26.032Z,31.35
2018-07-30T10:35:26.022Z,31.44
2018-07-30T10:36:26.013Z,31.50
2018-07-30T10:37:26.004Z,31.46
2018-07-30T10:38:26.150Z,31.21
2018-07-30T10:39:25.991Z,31.16
2018-07-30T10:40:25.983Z,31.01
2018-07-30T10:41:25.970Z,30.94
2018-07-30T10:42:25.959Z,30.76
2018-07-30T10:43:25.953Z,30.76
2018-07-30T10:44:25.941Z,30.65
2018-07-30T10:45:25.933Z,30.60
2018-07-30T10:46:26.042Z,30.55
2018-07-30T10:47:25.916Z,30.70
2018-07-30T10:48:25.911Z,30.75
2018-07-30T10:49:25.897Z,30.89
2018-07-30T10:50:25.889Z,31.06
2018-07-30T10:51:25.878Z,31.19
2018-07-30T10:52:25.871Z,31.32
2018-07-30T10:53:25.863Z,31.41
2018-07-30T10:54:25.850Z,31.51
2018-07-30T10:55:25.846Z,31.53
2018-07-30T10:56:25.834Z,31.68
2018-07-30T10:57:25.824Z,31.68
2018-07-30T10:58:25.816Z,31.73
2018-07-30T10:59:25.810Z,31.75
2018-07-30T11:00:25.809Z,31.68
2018-07-30T11:01:25.790Z,31.46
2018-07-30T11:02:25.777Z,31.25
2018-07-30T11:03:25.783Z,31.04
2018-07-30T11:04:25.761Z,31.14
2018-07-30T11:05:25.765Z,31.10
2018-07-30T11:06:25.750Z,31.14
2018-07-30T11:07:25.740Z,31.20
2018-07-30T11:08:25.728Z,31.25
2018-07-30T11:09:26.775Z,31.32
2018-07-30T11:10:25.714Z,31.32
2018-07-30T11:11:25.699Z,31.16
2018-07-30T11:12:25.691Z,31.20
2018-07-30T11:13:25.682Z,31.32
2018-07-30T11:14:25.674Z,31.50
2018-07-30T11:15:25.664Z,31.65
2018-07-30T11:16:25.660Z,31.76
2018-07-30T11:17:25.654Z,31.84
2018-07-30T11:18:25.651Z,31.76
2018-07-30T11:19:25.702Z,31.76
2018-07-30T11:20:25.624Z,31.84
2018-07-30T11:21:25.615Z,31.76
2018-07-30T11:22:25.605Z,31.81
2018-07-30T11:23:25.598Z,31.73
2018-07-30T11:24:25.589Z,31.69
2018-07-30T11:25:25.619Z,31.76
2018-07-30T11:26:25.570Z,31.86
2018-07-30T11:27:25.563Z,31.93
2018-07-30T11:28:25.557Z,31.99
2018-07-30T11:29:25.547Z,32.11
2018-07-30T11:30:25.550Z,32.06
2018-07-30T11:31:25.536Z,32.00
2018-07-30T11:32:25.523Z,32.08
2018-07-30T11:33:25.559Z,32.14
2018-07-30T11:34:25.512Z,32.22
2018-07-30T11:35:25.495Z,32.19
2018-07-30T11:36:25.487Z,32.19
2018-07-30T11:37:25.490Z,32.23
2018-07-30T11:38:25.554Z,32.28
2018-07-30T11:39:25.480Z,32.29
2018-07-30T11:40:25.457Z,32.32
2018-07-30T11:41:25.447Z,32.37
2018-07-30T11:42:25.435Z,32.30
2018-07-30T11:43:25.428Z,32.30
2018-07-30T11:44:25.443Z,32.28
2018-07-30T11:45:25.414Z,32.14
2018-07-30T11:46:25.404Z,32.14
2018-07-30T11:47:25.395Z,32.14
2018-07-30T11:48:25.402Z,32.21
2018-07-30T11:49:25.407Z,31.99
2018-07-30T11:50:25.370Z,31.95
2018-07-30T11:51:25.370Z,32.06
2018-07-30T11:52:25.358Z,32.01
2018-07-30T11:53:25.357Z,32.04
2018-07-30T11:54:25.383Z,32.08
2018-07-30T11:55:25.335Z,32.08
2018-07-30T11:56:25.322Z,32.10
2018-07-30T11:57:25.314Z,32.11
2018-07-30T11:58:25.307Z,32.04
2018-07-30T11:59:25.301Z,32.10
2018-07-30T12:00:25.290Z,32.00
2018-07-30T12:01:25.338Z,31.88
2018-07-30T12:02:25.277Z,31.84
2018-07-30T12:03:25.266Z,31.85
2018-07-30T12:04:25.262Z,31.95
2018-07-30T12:05:25.250Z,32.07
2018-07-30T12:06:25.242Z,32.04
2018-07-30T12:07:25.233Z,31.96
2018-07-30T12:08:25.224Z,31.96
2018-07-30T12:09:25.227Z,32.11
2018-07-30T12:10:25.207Z,32.23
2018-07-30T12:11:25.199Z,32.18
2018-07-30T12:12:25.194Z,32.33
2018-07-30T12:13:25.200Z,32.48
2018-07-30T12:14:25.175Z,32.70
2018-07-30T12:15:25.169Z,32.89
2018-07-30T12:16:25.171Z,32.85
2018-07-30T12:17:25.153Z,32.92
2018-07-30T12:18:25.144Z,33.00
2018-07-30T12:19:25.148Z,33.07
2018-07-30T12:20:25.128Z,33.12
2018-07-30T12:21:25.120Z,32.96
2018-07-30T12:22:25.114Z,32.89
2018-07-30T12:23:25.102Z,32.81
2018-07-30T12:24:25.094Z,32.84
2018-07-30T12:25:25.095Z,32.79
2018-07-30T12:26:25.079Z,32.89
2018-07-30T12:27:25.072Z,33.11
2018-07-30T12:28:25.063Z,33.21
2018-07-30T12:29:25.068Z,33.21
2018-07-30T12:30:25.239Z,33.34
2018-07-30T12:31:25.041Z,33.31
2018-07-30T12:32:25.049Z,33.34
2018-07-30T12:33:25.025Z,33.19
2018-07-30T12:34:25.030Z,33.07
2018-07-30T12:35:25.021Z,32.89
2018-07-30T12:36:25.059Z,32.59
2018-07-30T12:37:24.997Z,32.50
2018-07-30T12:38:24.990Z,32.37
2018-07-30T12:39:24.986Z,32.22
2018-07-30T12:40:24.982Z,32.25
2018-07-30T12:41:24.965Z,32.21
2018-07-30T12:42:24.952Z,32.01
2018-07-30T12:43:24.945Z,32.04
2018-07-30T12:44:24.945Z,31.93
2018-07-30T12:45:24.941Z,31.80
2018-07-30T12:46:24.921Z,31.88
2018-07-30T12:47:24.913Z,31.95
2018-07-30T12:48:24.911Z,32.06
2018-07-30T12:49:24.895Z,32.13
2018-07-30T12:50:24.893Z,32.26
2018-07-30T12:51:24.923Z,32.40
2018-07-30T12:52:24.872Z,32.47